Terminal Aerodrome Forecast
Issued by NWS

Home | Current Version | Previous Version | Text Only | Print | Product List | Glossary On
Versions: 1 2 3 4 5 6 7 8 9 10 11 12 13 14 15 16
000
FTAK31 PAJN 241133
TAFASI
TAF
PASI 241133Z 2412/2512 12018G28KT 6SM -RA SCT025 OVC035
      WS020/14050KT
      TEMPO 2412/2416 BKN025 OVC035
     FM241800 12024G36KT 6SM -RA BKN025 OVC040 WS020/14050KT
     FM251000 18015G22KT 5SM -SHRA BKN015 OVC025=

USA.gov is the U.S. government's official web portal to all federal, state and local government web resources and services.